Huvudsida
METAR-TAF:

METAR-TAF

Flygplatser :

Wallis, Frankrike

latitud: 13-14S, longitud: 176-10W, höjd: 23 m

METAR: saknas

Tid: 10:31 (22:31 UTC)

Väderprognos

Denna rapport gjordes för 5 timmar och 31 minuter sedan, klockan 17:00 UTC
Prognos gäller från 20 kl. 18 UTC till 21 kl. 18 UTC
Vind 8 kt från ost/sydost
Sikt 10 km eller mer
Spridda moln på en höjd av 2000 ft
Temporärt
från 20 kl. 18 UTC till 21 kl. 15 UTC
Sikt: 4000 m
Brutna moln på en höjd av 1400 ft
Få moln på en höjd av 1800 ft, Cumulonimbus.
regnskurar
Sannolikhet 40% :
Temporärt
från 20 kl. 18 UTC till 21 kl. 15 UTC
Sikt: 1400 m
Brutna moln på en höjd av 800 ft
Spridda moln på en höjd av 1600 ft, Cumulonimbus.
åska, regn

TAF: NLWW 201700Z 2018/2118 11008KT 9999 SCT020 TEMPO 2018/2115 4000 SHRA BKN014 FEW018CB PROB40 TEMPO 2018/2115 1400 TSRA BKN008 SCT016CB

Aktuella väderrapporter och prognoser från 4000 flygplatser (METAR- och TAF-rapporter).

De tillgängliga stationerna syns som gula och röda prickar på kartan.

För musen över prickarna för att se namnen på stationerna.

Klicka sedan för att få väderrapporter och prognoser.

För att ändra kartan: Klicka på de gröna knapparna med ett svart kors på för att zooma in; den gröna knappen med ett streck på för att zooma ut; eller på de gröna pilarna för angränsande kartor.


METAR-TAF: